createdAt,value
2023-01-22T00:03:24.666Z,101393.97
2023-01-22T00:08:31.370Z,101396.56
2023-01-22T00:13:40.753Z,101397.41
2023-01-22T00:18:52.251Z,101393.75
2023-01-22T00:24:05.579Z,101393.88
2023-01-22T00:29:16.594Z,101400.41
2023-01-22T00:34:37.907Z,101399.22
2023-01-22T00:39:44.209Z,101404.47
2023-01-22T00:44:57.321Z,101396.56
2023-01-22T00:50:13.576Z,101393.09
2023-01-22T00:55:35.833Z,101385.09
2023-01-22T01:00:48.179Z,101388.69
2023-01-22T01:06:06.300Z,101386.78
2023-01-22T01:11:24.578Z,101390.94
2023-01-22T01:16:42.915Z,101399.75
2023-01-22T01:21:55.209Z,101407.34
2023-01-22T01:27:05.324Z,101407.28
2023-01-22T01:32:20.492Z,101409.91
2023-01-22T01:37:27.680Z,101423.06
2023-01-22T01:42:37.920Z,101412.72
2023-01-22T01:47:44.140Z,101415.59
2023-01-22T01:52:51.336Z,101417.31
2023-01-22T01:57:58.702Z,101413.91
2023-01-22T02:03:11.136Z,101420.03
2023-01-22T02:08:24.971Z,101423.53
2023-01-22T02:13:36.210Z,101427.81
2023-01-22T02:18:46.418Z,101428.72
2023-01-22T02:23:59.645Z,101425.28
2023-01-22T02:29:08.836Z,101435.03
2023-01-22T02:34:19.382Z,101435.13
2023-01-22T02:39:43.148Z,101447.06
2023-01-22T02:44:57.151Z,101441.09
2023-01-22T02:50:04.745Z,101444.69
2023-01-22T02:55:21.978Z,101459.56
2023-01-22T03:00:34.323Z,101461.41
2023-01-22T03:05:43.463Z,101461.56
2023-01-22T03:10:54.820Z,101475.47
2023-01-22T03:16:19.009Z,101471.03
2023-01-22T03:21:27.209Z,101479.69
2023-01-22T03:26:37.447Z,101478.84
2023-01-22T03:31:49.760Z,101472.81
2023-01-22T03:37:17.932Z,101472.84
2023-01-22T03:42:31.798Z,101484.09
2023-01-22T03:47:36.377Z,101489.44
2023-01-22T03:52:45.576Z,101489.41
2023-01-22T03:57:54.692Z,101494.84
2023-01-22T04:02:58.954Z,101501.97
2023-01-22T04:08:08.053Z,101512.53
2023-01-22T04:13:15.414Z,101522.28
2023-01-22T04:18:21.643Z,101520.56
2023-01-22T04:23:29.845Z,101537.44
2023-01-22T04:28:37.001Z,101524.38
2023-01-22T04:33:44.213Z,101536.66
2023-01-22T04:38:50.392Z,101545.41
2023-01-22T04:44:00.646Z,101543.75
2023-01-22T04:49:05.824Z,101552.59
2023-01-22T04:54:10.050Z,101552.72
2023-01-22T04:59:21.302Z,101563.28
2023-01-22T05:04:27.264Z,101569.53
2023-01-22T05:09:33.687Z,101590.56
2023-01-22T05:14:42.779Z,101584.63
2023-01-22T05:19:46.985Z,101584.63
2023-01-22T05:24:53.175Z,101589.97
2023-01-22T05:30:05.396Z,101586.50
2023-01-22T05:35:10.621Z,101604.00
2023-01-22T05:40:15.158Z,101612.84
2023-01-22T05:45:22.977Z,101606.88
2023-01-22T05:50:27.202Z,101621.78
2023-01-22T05:55:32.367Z,101625.25
2023-01-22T06:00:38.560Z,101633.22
2023-01-22T06:05:42.785Z,101644.63
2023-01-22T06:10:46.967Z,101634.16
2023-01-22T06:15:58.217Z,101630.69
2023-01-22T06:21:03.424Z,101631.66
2023-01-22T06:26:08.582Z,101634.38
2023-01-22T06:31:17.626Z,101630.00
2023-01-22T06:36:21.970Z,101647.50
2023-01-22T06:41:29.179Z,101658.94
2023-01-22T06:46:40.425Z,101664.22
2023-01-22T06:51:49.837Z,101687.91
2023-01-22T06:56:56.689Z,101697.50
2023-01-22T07:02:07.015Z,101696.63
2023-01-22T07:07:11.272Z,101715.03
2023-01-22T07:12:16.400Z,101701.97
2023-01-22T07:17:23.579Z,101705.59
2023-01-22T07:22:27.779Z,101692.47
2023-01-22T07:27:32.967Z,101692.50
2023-01-22T07:32:39.182Z,101677.66
2023-01-22T07:37:43.362Z,101684.69
2023-01-22T07:48:27.832Z,101677.69
2023-01-22T07:53:32.075Z,101676.84
2023-01-22T07:58:36.284Z,101689.09
2023-01-22T08:03:50.513Z,101685.63
2023-01-22T08:08:54.314Z,101686.56
2023-01-22T08:13:59.029Z,101695.34
2023-01-22T08:19:09.090Z,101701.44
2023-01-22T08:24:14.394Z,101703.19
2023-01-22T08:29:31.069Z,101713.66
2023-01-22T08:34:43.024Z,101714.53
2023-01-22T08:39:49.039Z,101718.03
2023-01-22T08:44:53.116Z,101732.03
2023-01-22T08:49:59.308Z,101751.16
2023-01-22T08:55:21.413Z,101758.03
2023-01-22T09:00:49.266Z,101759.66
2023-01-22T09:12:56.288Z,101784.09
2023-01-22T09:25:50.328Z,101795.22
2023-01-22T09:31:30.114Z,101810.06
2023-01-22T09:37:16.005Z,101808.25
2023-01-22T10:08:09.570Z,101830.47
2023-01-22T10:32:04.912Z,101859.16
2023-01-22T11:54:09.104Z,101868.22
2023-01-22T11:59:32.891Z,101861.94
2023-01-22T12:05:06.218Z,101855.00
2023-01-22T12:10:42.518Z,101847.81
2023-01-22T12:16:05.571Z,101844.06
2023-01-22T12:21:25.909Z,101818.53
2023-01-22T12:26:46.613Z,101805.22
2023-01-22T12:32:01.527Z,101793.91
2023-01-22T12:37:08.672Z,101791.97
2023-01-22T12:42:28.932Z,101775.28
2023-01-22T12:47:43.161Z,101774.13
2023-01-22T12:52:48.951Z,101770.56
2023-01-22T12:58:01.914Z,101762.63
2023-01-22T13:03:33.454Z,101749.38
2023-01-22T13:08:42.152Z,101750.88
2023-01-22T13:13:58.563Z,101741.16
2023-01-22T13:19:22.577Z,101735.84
2023-01-22T13:24:27.773Z,101742.66
2023-01-22T13:29:34.952Z,101735.41
2023-01-22T13:34:38.336Z,101730.94
2023-01-22T13:39:41.604Z,101720.91
2023-01-22T13:44:51.600Z,101709.31
2023-01-22T13:49:55.407Z,101712.78
2023-01-22T13:55:06.003Z,101694.84
2023-01-22T14:00:29.378Z,101694.22
2023-01-22T14:05:35.555Z,101685.13
2023-01-22T14:10:41.781Z,101683.81
2023-01-22T14:15:58.924Z,101683.09
2023-01-22T14:21:03.126Z,101673.75
2023-01-22T14:26:09.276Z,101680.00
2023-01-22T14:31:27.583Z,101656.66
2023-01-22T14:36:31.780Z,101660.09
2023-01-22T14:41:35.215Z,101649.50
2023-01-22T14:46:44.140Z,101646.22
2023-01-22T14:51:48.445Z,101644.53
2023-01-22T14:56:59.688Z,101661.59
2023-01-22T15:02:06.808Z,101654.38
2023-01-22T15:13:47.618Z,101653.28
2023-01-22T15:42:41.185Z,101630.34
2023-01-22T15:47:45.637Z,101634.47
2023-01-22T15:52:53.829Z,101637.50
2023-01-22T16:17:01.812Z,101663.59
2023-01-22T16:28:13.115Z,101654.97
2023-01-22T16:39:06.661Z,101655.44
2023-01-22T16:44:22.562Z,101651.19
2023-01-22T16:49:43.129Z,101661.56
2023-01-22T16:55:01.696Z,101658.00
2023-01-22T17:00:18.987Z,101658.50
2023-01-22T17:05:22.431Z,101667.25
2023-01-22T17:10:25.548Z,101668.47
2023-01-22T17:15:30.537Z,101675.94
2023-01-22T17:20:33.600Z,101677.34
2023-01-22T17:25:40.717Z,101680.28
2023-01-22T17:30:45.396Z,101691.19
2023-01-22T17:35:48.953Z,101690.59
2023-01-22T17:40:52.257Z,101707.53
2023-01-22T17:45:56.908Z,101703.72
2023-01-22T17:51:04.872Z,101699.56
2023-01-22T17:56:10.389Z,101721.72
2023-01-22T18:01:16.473Z,101717.53
2023-01-22T18:06:20.581Z,101720.47
2023-01-22T18:11:28.020Z,101731.16
2023-01-22T18:16:36.489Z,101724.19
2023-01-22T18:21:40.670Z,101746.38
2023-01-22T18:26:44.165Z,101738.69
2023-01-22T18:31:48.757Z,101736.25
2023-01-22T18:36:51.996Z,101724.13
2023-01-22T18:41:55.635Z,101739.13
2023-01-22T18:47:01.888Z,101742.78
2023-01-22T18:52:05.194Z,101741.22
2023-01-22T18:57:08.364Z,101747.44
2023-01-22T19:02:16.347Z,101743.94
2023-01-22T19:07:19.553Z,101746.66
2023-01-22T19:12:22.729Z,101744.91
2023-01-22T19:17:27.372Z,101763.47
2023-01-22T19:22:30.734Z,101765.25
2023-01-22T19:27:34.551Z,101763.59
2023-01-22T19:32:39.394Z,101775.00
2023-01-22T19:37:42.663Z,101766.25
2023-01-22T19:42:47.024Z,101764.53
2023-01-22T19:47:51.675Z,101775.00
2023-01-22T19:52:54.846Z,101769.88
2023-01-22T19:57:58.233Z,101774.28
2023-01-22T20:03:06.841Z,101772.63
2023-01-22T20:08:11.239Z,101773.59
2023-01-22T20:13:14.731Z,101774.53
2023-01-22T20:18:19.801Z,101775.50
2023-01-22T20:23:23.303Z,101767.66
2023-01-22T20:28:26.556Z,101758.97
2023-01-22T20:33:31.494Z,101767.75
2023-01-22T20:38:35.603Z,101771.31
2023-01-22T20:43:40.454Z,101781.78
2023-01-22T20:48:46.033Z,101792.28
2023-01-22T20:53:50.822Z,101798.44
2023-01-22T20:58:57.426Z,101794.91
2023-01-22T21:04:02.931Z,101790.56
2023-01-22T21:09:07.752Z,101797.53
2023-01-22T21:14:16.052Z,101800.16
2023-01-22T21:19:23.795Z,101792.34
2023-01-22T21:24:27.467Z,101809.81
2023-01-22T21:29:30.665Z,101801.09
2023-01-22T21:34:36.520Z,101799.41
2023-01-22T21:39:45.125Z,101788.00
2023-01-22T21:45:05.891Z,101775.75
2023-01-22T21:50:12.083Z,101772.31
2023-01-22T21:55:15.858Z,101775.81
2023-01-22T22:00:20.389Z,101758.31
2023-01-22T22:05:25.396Z,101777.56
2023-01-22T22:10:28.658Z,101785.44
2023-01-22T22:15:31.903Z,101788.97
2023-01-22T22:20:37.589Z,101788.97
2023-01-22T22:25:40.838Z,101770.63
2023-01-22T22:30:44.105Z,101775.91
2023-01-22T22:35:49.160Z,101775.00
2023-01-22T22:41:03.881Z,101763.66
2023-01-22T22:46:09.308Z,101765.41
2023-01-22T22:51:15.930Z,101765.41
2023-01-22T22:56:19.201Z,101765.44
2023-01-22T23:01:25.215Z,101765.47
2023-01-22T23:06:32.743Z,101775.06
2023-01-22T23:11:36.731Z,101779.44
2023-01-22T23:16:41.631Z,101775.06
2023-01-22T23:21:46.703Z,101778.50
2023-01-22T23:26:50.797Z,101767.19
2023-01-22T23:31:54.308Z,101763.69
2023-01-22T23:36:59.018Z,101754.97
2023-01-22T23:42:02.162Z,101749.75
2023-01-22T23:47:05.549Z,101750.63
2023-01-22T23:52:10.211Z,101744.50
2023-01-22T23:57:13.410Z,101728.81
